createdAt,value
2023-02-07T00:01:35.411Z,97.53
2023-02-07T00:04:03.618Z,97.49
2023-02-07T00:06:33.628Z,97.21
2023-02-07T00:09:02.483Z,97.09
2023-02-07T00:11:31.992Z,97.01
2023-02-07T00:14:00.905Z,96.74
2023-02-07T00:16:29.606Z,96.58
2023-02-07T00:19:00.320Z,96.55
2023-02-07T00:21:29.894Z,96.48
2023-02-07T00:23:58.767Z,96.63
2023-02-07T00:26:28.720Z,96.46
2023-02-07T00:28:58.640Z,96.32
2023-02-07T00:31:29.438Z,96.40
2023-02-07T00:34:01.302Z,96.40
2023-02-07T00:36:32.747Z,96.41
2023-02-07T00:39:02.669Z,96.28
2023-02-07T00:41:31.031Z,95.86
2023-02-07T00:44:03.012Z,95.88
2023-02-07T00:46:31.760Z,95.78
2023-02-07T00:49:00.041Z,95.68
2023-02-07T00:51:28.714Z,95.91
2023-02-07T00:53:57.627Z,95.85
2023-02-07T00:56:28.541Z,95.85
2023-02-07T00:58:59.540Z,96.07
2023-02-07T01:01:29.445Z,95.93
2023-02-07T01:03:58.323Z,95.94
2023-02-07T01:06:27.985Z,95.89
2023-02-07T01:08:59.750Z,95.71
2023-02-07T01:11:29.845Z,96.37
2023-02-07T01:13:59.962Z,96.24
2023-02-07T01:16:32.574Z,96.25
2023-02-07T01:19:03.066Z,96.16
2023-02-07T01:21:31.442Z,96.50
2023-02-07T01:24:00.391Z,96.21
2023-02-07T01:26:29.169Z,95.93
2023-02-07T01:28:57.628Z,95.93
2023-02-07T01:31:26.346Z,96.13
2023-02-07T01:33:56.792Z,96.20
2023-02-07T01:36:27.614Z,96.07
2023-02-07T01:38:56.031Z,95.94
2023-02-07T01:41:26.127Z,95.75
2023-02-07T01:44:02.594Z,96.08
2023-02-07T01:46:32.299Z,96.09
2023-02-07T01:49:06.185Z,96.02
2023-02-07T01:51:36.009Z,96.38
2023-02-07T01:54:08.986Z,96.45
2023-02-07T01:56:42.326Z,96.25
2023-02-07T01:59:11.601Z,96.16
2023-02-07T02:01:42.958Z,96.24
2023-02-07T02:04:12.510Z,96.07
2023-02-07T02:06:42.201Z,95.91
2023-02-07T02:09:12.522Z,96.06
2023-02-07T02:12:12.494Z,96.12
2023-02-07T02:15:10.341Z,96.14
2023-02-07T02:17:54.654Z,96.15
2023-02-07T02:21:10.008Z,96.07
2023-02-07T02:23:53.124Z,95.62
2023-02-07T02:26:42.751Z,96.14
2023-02-07T02:29:42.098Z,95.99
2023-02-07T02:32:54.606Z,95.88
2023-02-07T02:35:30.641Z,96.05
2023-02-07T02:38:08.327Z,95.86
2023-02-07T02:40:46.362Z,95.80
2023-02-07T02:43:22.368Z,95.55
2023-02-07T02:45:56.672Z,95.50
2023-02-07T02:48:28.223Z,95.62
2023-02-07T02:50:57.705Z,95.52
2023-02-07T02:53:25.901Z,95.63
2023-02-07T02:56:23.631Z,95.85
2023-02-07T02:59:12.300Z,95.68
2023-02-07T03:01:52.914Z,95.58
2023-02-07T03:04:50.560Z,95.75
2023-02-07T03:07:45.111Z,95.61
2023-02-07T03:10:24.976Z,95.51
2023-02-07T03:12:58.920Z,95.71
2023-02-07T03:15:36.321Z,95.62
2023-02-07T03:18:11.528Z,95.54
2023-02-07T03:20:46.915Z,95.45
2023-02-07T03:23:17.554Z,95.49
2023-02-07T03:25:47.735Z,95.56
2023-02-07T03:28:19.880Z,95.59
2023-02-07T03:30:50.389Z,95.69
2023-02-07T03:33:20.663Z,95.67
2023-02-07T03:35:54.742Z,95.39
2023-02-07T03:38:23.240Z,95.45
2023-02-07T03:40:59.326Z,95.47
2023-02-07T03:43:30.396Z,95.69
2023-02-07T03:45:59.228Z,95.47
2023-02-07T03:48:27.484Z,95.37
2023-02-07T03:50:57.001Z,95.19
2023-02-07T03:53:25.173Z,95.20
2023-02-07T03:55:54.210Z,95.00
2023-02-07T03:58:22.476Z,94.87
2023-02-07T04:00:50.826Z,94.98
2023-02-07T04:03:19.108Z,94.96
2023-02-07T04:05:49.473Z,95.07
2023-02-07T04:08:18.974Z,95.00
2023-02-07T04:10:57.808Z,94.99
2023-02-07T04:13:26.128Z,94.87
2023-02-07T04:15:54.936Z,94.96
2023-02-07T04:18:23.437Z,95.12
2023-02-07T04:20:51.641Z,95.01
2023-02-07T04:23:21.451Z,95.13
2023-02-07T04:25:49.591Z,95.34
2023-02-07T04:28:17.929Z,95.49
2023-02-07T04:30:46.105Z,95.36
2023-02-07T04:33:14.475Z,95.08
2023-02-07T04:35:43.143Z,95.05
2023-02-07T04:38:11.429Z,94.90
2023-02-07T04:40:41.302Z,94.98
2023-02-07T04:43:09.448Z,95.02
2023-02-07T04:45:37.856Z,95.07
2023-02-07T04:48:06.708Z,95.19
2023-02-07T04:50:34.942Z,94.97
2023-02-07T04:53:03.095Z,94.82
2023-02-07T04:55:31.368Z,94.73
2023-02-07T04:58:00.902Z,95.04
2023-02-07T05:00:29.048Z,95.12
2023-02-07T05:02:59.723Z,95.29
2023-02-07T05:05:28.780Z,95.28
2023-02-07T05:07:56.933Z,95.31
2023-02-07T05:10:25.243Z,95.24
2023-02-07T05:12:53.387Z,95.37
2023-02-07T05:15:23.811Z,95.16
2023-02-07T05:17:52.355Z,95.11
2023-02-07T05:20:20.724Z,95.02
2023-02-07T05:22:48.916Z,94.81
2023-02-07T05:25:17.459Z,94.76
2023-02-07T05:27:45.943Z,94.86
2023-02-07T05:30:15.254Z,95.08
2023-02-07T05:33:02.416Z,94.86
2023-02-07T05:35:30.652Z,95.12
2023-02-07T05:37:59.216Z,94.98
2023-02-07T05:40:27.654Z,94.93
2023-02-07T05:42:55.982Z,94.71
2023-02-07T05:45:24.217Z,94.83
2023-02-07T05:47:53.877Z,94.74
2023-02-07T05:50:22.139Z,94.81
2023-02-07T05:53:04.287Z,94.89
2023-02-07T05:55:32.810Z,94.99
2023-02-07T05:58:01.959Z,94.87
2023-02-07T06:00:30.666Z,94.87
2023-02-07T06:03:00.565Z,94.98
2023-02-07T06:05:31.840Z,95.00
2023-02-07T06:08:00.387Z,94.89
2023-02-07T06:10:28.544Z,94.97
2023-02-07T06:12:56.828Z,94.65
2023-02-07T06:15:25.634Z,94.88
2023-02-07T06:17:53.808Z,94.98
2023-02-07T06:20:23.640Z,94.99
2023-02-07T06:22:52.418Z,94.89
2023-02-07T06:25:21.483Z,94.91
2023-02-07T06:27:49.792Z,94.68
2023-02-07T06:30:19.078Z,94.94
2023-02-07T06:32:47.339Z,94.74
2023-02-07T06:35:15.889Z,94.56
2023-02-07T06:37:45.368Z,95.04
2023-02-07T06:40:13.533Z,95.10
2023-02-07T06:42:42.016Z,94.91
2023-02-07T06:45:10.736Z,94.91
2023-02-07T06:47:38.882Z,94.97
2023-02-07T06:50:09.153Z,95.01
2023-02-07T06:52:37.588Z,94.75
2023-02-07T06:55:08.276Z,94.67
2023-02-07T06:57:36.474Z,94.58
2023-02-07T07:00:05.387Z,94.56
2023-02-07T07:02:33.923Z,94.49
2023-02-07T07:05:02.460Z,94.54
2023-02-07T07:07:31.084Z,94.73
2023-02-07T07:09:59.250Z,95.30
2023-02-07T07:12:28.765Z,94.94
2023-02-07T07:14:56.917Z,95.06
2023-02-07T07:17:25.099Z,95.02
2023-02-07T07:19:53.265Z,94.65
2023-02-07T07:22:21.574Z,94.40
2023-02-07T07:24:50.315Z,94.65
2023-02-07T07:27:18.527Z,94.87
2023-02-07T07:29:48.076Z,94.75
2023-02-07T07:32:28.726Z,94.74
2023-02-07T07:35:01.699Z,94.57
2023-02-07T07:37:29.884Z,94.33
2023-02-07T07:39:58.094Z,94.43
2023-02-07T07:42:26.339Z,94.42
2023-02-07T07:45:11.206Z,94.48
2023-02-07T07:47:39.398Z,94.55
2023-02-07T07:50:08.629Z,94.37
2023-02-07T07:52:37.469Z,94.24
2023-02-07T07:55:06.367Z,94.28
2023-02-07T07:57:34.868Z,94.36
2023-02-07T08:00:03.450Z,94.49
2023-02-07T08:02:42.573Z,94.64
2023-02-07T08:05:13.721Z,95.03
2023-02-07T08:07:42.405Z,95.32
2023-02-07T08:10:10.878Z,95.43
2023-02-07T08:12:39.450Z,95.75
2023-02-07T08:15:09.711Z,96.09
2023-02-07T08:17:38.110Z,96.25
2023-02-07T08:20:08.611Z,96.16
2023-02-07T08:22:36.785Z,96.04
2023-02-07T08:25:05.820Z,96.18
2023-02-07T08:27:34.231Z,96.74
2023-02-07T08:30:02.375Z,97.16
2023-02-07T08:32:30.575Z,97.01
2023-02-07T08:34:58.724Z,97.47
2023-02-07T08:37:28.722Z,97.38
2023-02-07T08:39:58.067Z,97.25
2023-02-07T08:42:26.233Z,97.55
2023-02-07T08:44:54.431Z,97.66
2023-02-07T08:47:22.604Z,97.40
2023-02-07T08:49:50.789Z,97.10
2023-02-07T08:52:18.953Z,96.80
2023-02-07T08:54:48.435Z,96.56
2023-02-07T08:57:17.248Z,96.82
2023-02-07T08:59:45.403Z,96.62
2023-02-07T09:02:13.586Z,96.42
2023-02-07T09:04:43.352Z,96.58
2023-02-07T09:07:12.293Z,96.32
2023-02-07T09:09:40.570Z,95.93
2023-02-07T09:12:10.584Z,95.98
2023-02-07T09:14:39.575Z,95.51
2023-02-07T09:17:08.740Z,95.52
2023-02-07T09:19:37.295Z,95.16
2023-02-07T09:22:06.521Z,94.85
2023-02-07T09:24:34.672Z,94.63
2023-02-07T09:27:03.513Z,94.09
2023-02-07T09:29:33.124Z,93.32
2023-02-07T09:32:01.335Z,92.83
2023-02-07T09:34:29.497Z,92.28
2023-02-07T09:36:57.644Z,91.58
2023-02-07T09:39:26.927Z,91.03
2023-02-07T09:42:06.796Z,91.00
2023-02-07T09:44:50.330Z,91.04
2023-02-07T09:47:21.618Z,91.09
2023-02-07T09:49:54.107Z,91.14
2023-02-07T09:52:25.216Z,91.40
2023-02-07T09:54:56.741Z,90.48
2023-02-07T09:57:28.446Z,89.49
2023-02-07T10:00:02.717Z,89.38
2023-02-07T10:02:38.783Z,88.87
2023-02-07T10:05:16.687Z,87.62
2023-02-07T10:07:46.166Z,88.03
2023-02-07T10:10:16.522Z,87.58
2023-02-07T10:13:02.567Z,88.12
2023-02-07T10:15:43.595Z,87.62
2023-02-07T10:18:30.022Z,86.38
2023-02-07T10:21:04.567Z,84.99
2023-02-07T10:23:43.739Z,84.11
2023-02-07T10:26:23.681Z,83.02
2023-02-07T10:29:14.025Z,82.56
2023-02-07T10:31:48.534Z,81.41
2023-02-07T10:34:22.080Z,80.43
2023-02-07T10:36:52.159Z,80.47
2023-02-07T10:39:26.557Z,80.68
2023-02-07T10:41:57.422Z,80.61
2023-02-07T10:44:29.539Z,80.91
2023-02-07T10:47:02.327Z,80.38
2023-02-07T10:49:32.854Z,80.23
2023-02-07T10:52:07.922Z,79.63
2023-02-07T10:54:51.978Z,79.67
2023-02-07T10:57:21.467Z,78.70
2023-02-07T10:59:50.586Z,77.88
2023-02-07T11:02:48.299Z,76.69
2023-02-07T11:05:32.066Z,76.55
2023-02-07T11:08:03.592Z,76.43
2023-02-07T11:10:36.790Z,76.41
2023-02-07T11:13:07.051Z,75.80
2023-02-07T11:15:40.703Z,75.72
2023-02-07T11:18:27.987Z,75.81
2023-02-07T11:20:56.646Z,75.48
2023-02-07T11:23:25.325Z,74.64
2023-02-07T11:25:56.408Z,74.51
2023-02-07T11:28:27.575Z,74.18
2023-02-07T11:30:58.652Z,74.56
2023-02-07T11:33:29.817Z,74.85
2023-02-07T11:36:11.024Z,74.40
2023-02-07T11:38:42.143Z,74.11
2023-02-07T11:41:19.126Z,74.41
2023-02-07T11:43:56.445Z,74.48
2023-02-07T11:46:30.470Z,74.13
2023-02-07T11:49:00.750Z,73.64
2023-02-07T11:51:32.497Z,73.62
2023-02-07T11:54:02.992Z,73.02
2023-02-07T11:56:34.818Z,72.78
2023-02-07T11:59:06.575Z,73.09
2023-02-07T12:01:37.789Z,73.05
2023-02-07T12:04:13.774Z,72.70
2023-02-07T12:06:46.752Z,72.72
2023-02-07T12:09:24.605Z,73.16
2023-02-07T12:11:56.819Z,73.35
2023-02-07T12:14:31.053Z,73.65
2023-02-07T12:17:01.729Z,73.90
2023-02-07T12:19:35.265Z,73.59
2023-02-07T12:22:08.676Z,73.07
2023-02-07T12:24:41.680Z,73.12
2023-02-07T12:27:15.943Z,72.87
2023-02-07T12:29:55.591Z,72.45
2023-02-07T12:32:31.624Z,71.29
2023-02-07T12:35:06.921Z,71.46
2023-02-07T12:37:43.311Z,70.01
2023-02-07T12:40:20.139Z,70.29
2023-02-07T12:42:53.568Z,70.06
2023-02-07T12:45:34.127Z,69.71
2023-02-07T12:48:10.400Z,69.92
2023-02-07T12:51:07.077Z,70.03
2023-02-07T12:53:47.218Z,70.08
2023-02-07T12:56:33.916Z,70.02
2023-02-07T12:59:14.942Z,69.61
2023-02-07T13:01:47.682Z,69.63
2023-02-07T13:04:39.475Z,69.22
2023-02-07T13:07:24.292Z,70.13
2023-02-07T13:10:02.292Z,69.20
2023-02-07T13:12:36.113Z,68.19
2023-02-07T13:15:17.865Z,68.68
2023-02-07T13:17:55.715Z,68.34
2023-02-07T13:20:37.094Z,68.82
2023-02-07T13:23:16.786Z,67.71
2023-02-07T13:25:49.010Z,68.08
2023-02-07T13:28:22.072Z,68.90
2023-02-07T13:30:51.927Z,69.06
2023-02-07T13:33:31.733Z,69.00
2023-02-07T13:36:05.828Z,69.25
2023-02-07T13:38:47.008Z,69.22
2023-02-07T13:41:25.769Z,69.34
2023-02-07T13:44:09.884Z,68.98
2023-02-07T13:47:00.603Z,69.09
2023-02-07T13:49:40.501Z,69.07
2023-02-07T13:52:12.866Z,68.91
2023-02-07T13:54:53.136Z,68.44
2023-02-07T13:57:41.262Z,68.85
2023-02-07T14:00:19.220Z,69.39
2023-02-07T14:02:51.273Z,69.62
2023-02-07T14:05:23.636Z,70.29
2023-02-07T14:07:58.176Z,70.39
2023-02-07T14:10:48.508Z,69.36
2023-02-07T14:13:29.144Z,68.95
2023-02-07T14:16:08.778Z,68.51
2023-02-07T14:18:43.703Z,68.70
2023-02-07T14:21:32.946Z,69.16
2023-02-07T14:24:17.936Z,69.45
2023-02-07T14:27:02.479Z,68.12
2023-02-07T14:29:54.842Z,67.39
2023-02-07T14:32:29.189Z,67.49
2023-02-07T14:35:05.402Z,67.32
2023-02-07T14:37:41.957Z,66.40
2023-02-07T14:40:20.447Z,66.49
2023-02-07T14:43:00.108Z,66.49
2023-02-07T14:45:31.688Z,66.94
2023-02-07T14:48:00.400Z,67.15
2023-02-07T14:50:33.481Z,67.24
2023-02-07T14:53:05.976Z,67.81
2023-02-07T14:55:42.452Z,68.45
2023-02-07T14:58:27.036Z,68.45
2023-02-07T15:00:59.575Z,68.65
2023-02-07T15:03:30.706Z,68.33
2023-02-07T15:06:00.973Z,68.38
2023-02-07T15:08:32.425Z,69.32
2023-02-07T15:11:03.890Z,70.90
2023-02-07T15:13:37.265Z,71.06
2023-02-07T15:16:08.295Z,71.48
2023-02-07T15:18:41.361Z,72.21
2023-02-07T15:21:17.223Z,72.56
2023-02-07T15:23:52.161Z,73.04
2023-02-07T15:26:21.017Z,73.22
2023-02-07T15:28:58.974Z,74.19
2023-02-07T15:31:27.881Z,74.19
2023-02-07T15:33:57.823Z,74.90
2023-02-07T15:36:37.619Z,75.93
2023-02-07T15:39:09.049Z,76.07
2023-02-07T15:41:37.337Z,75.83
2023-02-07T15:44:19.336Z,75.72
2023-02-07T15:46:49.998Z,76.34
2023-02-07T15:49:30.295Z,77.03
2023-02-07T15:52:04.008Z,77.32
2023-02-07T15:54:38.128Z,78.06
2023-02-07T15:57:13.198Z,78.41
2023-02-07T15:59:43.431Z,79.12
2023-02-07T16:02:23.501Z,79.38
2023-02-07T16:04:51.840Z,79.23
2023-02-07T16:07:23.217Z,79.74
2023-02-07T16:09:53.848Z,80.21
2023-02-07T16:12:34.271Z,80.46
2023-02-07T16:15:22.079Z,81.09
2023-02-07T16:17:50.263Z,82.57
2023-02-07T16:20:19.023Z,83.03
2023-02-07T16:22:48.820Z,83.11
2023-02-07T16:25:20.642Z,83.52
2023-02-07T16:27:51.696Z,84.22
2023-02-07T16:30:25.180Z,83.92
2023-02-07T16:32:53.350Z,84.55
2023-02-07T16:35:24.357Z,85.34
2023-02-07T16:37:53.435Z,85.66
2023-02-07T16:40:23.201Z,85.26
2023-02-07T16:42:53.726Z,85.31
2023-02-07T16:45:28.044Z,85.58
2023-02-07T16:47:56.398Z,85.96
2023-02-07T16:50:26.706Z,86.27
2023-02-07T16:52:57.181Z,86.30
2023-02-07T16:55:27.645Z,85.94
2023-02-07T16:57:57.526Z,86.00
2023-02-07T17:00:27.953Z,86.06
2023-02-07T17:02:56.212Z,86.82
2023-02-07T17:05:24.840Z,87.64
2023-02-07T17:07:53.246Z,88.39
2023-02-07T17:10:24.593Z,88.01
2023-02-07T17:12:54.299Z,87.71
2023-02-07T17:15:22.794Z,87.49
2023-02-07T17:17:53.772Z,86.98
2023-02-07T17:20:25.544Z,86.81
2023-02-07T17:22:54.164Z,86.77
2023-02-07T17:25:24.585Z,87.18
2023-02-07T17:27:53.166Z,87.43
2023-02-07T17:30:23.725Z,87.86
2023-02-07T17:32:55.202Z,88.29
2023-02-07T17:35:24.264Z,88.96
2023-02-07T17:37:53.628Z,90.06
2023-02-07T17:40:28.433Z,90.61
2023-02-07T17:42:57.311Z,90.58
2023-02-07T17:45:26.670Z,90.56
2023-02-07T17:47:57.387Z,90.96
2023-02-07T17:50:27.787Z,91.25
2023-02-07T17:52:56.386Z,90.42
2023-02-07T17:55:25.005Z,90.00
2023-02-07T17:57:53.505Z,89.89
2023-02-07T18:00:25.389Z,90.20
2023-02-07T18:02:54.024Z,89.73
2023-02-07T18:05:24.100Z,89.73
2023-02-07T18:07:52.824Z,89.70
2023-02-07T18:10:23.310Z,89.89
2023-02-07T18:12:53.073Z,89.58
2023-02-07T18:15:22.381Z,89.61
2023-02-07T18:17:52.429Z,90.31
2023-02-07T18:20:24.884Z,90.43
2023-02-07T18:22:55.212Z,90.52
2023-02-07T18:25:24.718Z,90.90
2023-02-07T18:27:54.355Z,91.43
2023-02-07T18:30:25.948Z,91.38
2023-02-07T18:32:54.515Z,91.18
2023-02-07T18:35:24.139Z,91.53
2023-02-07T18:37:52.309Z,91.66
2023-02-07T18:40:20.591Z,92.06
2023-02-07T18:42:48.855Z,92.11
2023-02-07T18:45:17.193Z,92.01
2023-02-07T18:47:45.447Z,91.52
2023-02-07T18:50:13.841Z,91.29
2023-02-07T18:52:43.704Z,91.43
2023-02-07T18:55:11.881Z,91.34
2023-02-07T18:57:40.265Z,91.37
2023-02-07T19:00:10.367Z,91.49
2023-02-07T19:02:38.720Z,92.03
2023-02-07T19:05:08.084Z,92.42
2023-02-07T19:07:36.425Z,92.60
2023-02-07T19:10:06.137Z,93.30
2023-02-07T19:12:34.409Z,93.91
2023-02-07T19:15:02.638Z,94.14
2023-02-07T19:17:31.131Z,94.29
2023-02-07T19:19:59.425Z,94.30
2023-02-07T19:22:35.321Z,94.92
2023-02-07T19:25:06.477Z,95.28
2023-02-07T19:27:34.906Z,94.90
2023-02-07T19:30:03.349Z,94.48
2023-02-07T19:32:31.914Z,94.32
2023-02-07T19:35:00.606Z,94.33
2023-02-07T19:37:29.222Z,94.00
2023-02-07T19:39:57.423Z,94.29
2023-02-07T19:42:26.943Z,94.11
2023-02-07T19:44:55.108Z,94.08
2023-02-07T19:47:23.607Z,94.03
2023-02-07T19:49:52.567Z,94.15
2023-02-07T19:52:21.167Z,93.48
2023-02-07T19:54:50.403Z,93.57
2023-02-07T19:57:18.908Z,93.33
2023-02-07T19:59:48.492Z,93.15
2023-02-07T20:02:16.644Z,93.01
2023-02-07T20:04:44.765Z,92.71
2023-02-07T20:07:12.895Z,92.69
2023-02-07T20:09:41.039Z,93.72
2023-02-07T20:12:09.423Z,94.29
2023-02-07T20:14:37.666Z,94.69
2023-02-07T20:17:07.315Z,95.04
2023-02-07T20:19:35.983Z,94.96
2023-02-07T20:22:04.215Z,94.67
2023-02-07T20:24:32.806Z,94.84
2023-02-07T20:27:00.946Z,95.05
2023-02-07T20:29:29.161Z,95.31
2023-02-07T20:31:57.368Z,94.61
2023-02-07T20:34:27.011Z,94.64
2023-02-07T20:36:55.188Z,94.51
2023-02-07T20:39:23.820Z,93.91
2023-02-07T20:41:52.019Z,93.44
2023-02-07T20:44:22.340Z,93.28
2023-02-07T20:46:50.973Z,93.51
2023-02-07T20:49:21.872Z,94.60
2023-02-07T20:51:52.081Z,95.39
2023-02-07T20:54:22.327Z,95.89
2023-02-07T20:56:51.373Z,95.70
2023-02-07T20:59:21.185Z,95.92
2023-02-07T21:01:50.003Z,96.66
2023-02-07T21:04:18.294Z,96.64
2023-02-07T21:06:47.035Z,96.61
2023-02-07T21:09:16.806Z,96.34
2023-02-07T21:11:47.071Z,95.99
2023-02-07T21:14:17.257Z,96.02
2023-02-07T21:16:45.541Z,95.53
2023-02-07T21:19:14.747Z,95.38
2023-02-07T21:21:43.347Z,95.25
2023-02-07T21:24:11.606Z,95.35
2023-02-07T21:26:41.289Z,95.82
2023-02-07T21:29:09.770Z,96.58
2023-02-07T21:31:38.408Z,96.96
2023-02-07T21:34:07.062Z,97.50
2023-02-07T21:36:37.992Z,98.00
2023-02-07T21:39:09.250Z,98.22
2023-02-07T21:41:39.565Z,98.45
2023-02-07T21:44:09.976Z,97.88
2023-02-07T21:46:40.348Z,97.75
2023-02-07T21:49:10.390Z,97.74
2023-02-07T21:51:38.530Z,98.11
2023-02-07T21:54:07.865Z,97.89
2023-02-07T21:56:38.401Z,97.38
2023-02-07T21:59:11.737Z,97.02
2023-02-07T22:01:40.106Z,96.59
2023-02-07T22:04:10.343Z,96.43
2023-02-07T22:06:41.825Z,96.07
2023-02-07T22:09:12.858Z,96.09
2023-02-07T22:11:41.620Z,96.33
2023-02-07T22:14:12.003Z,96.46
2023-02-07T22:16:40.389Z,96.58
2023-02-07T22:19:12.092Z,96.65
2023-02-07T22:21:40.561Z,96.77
2023-02-07T22:24:09.264Z,97.00
2023-02-07T22:26:37.530Z,97.24
2023-02-07T22:29:09.020Z,97.42
2023-02-07T22:31:40.704Z,97.63
2023-02-07T22:34:12.214Z,97.62
2023-02-07T22:36:43.059Z,97.44
2023-02-07T22:39:12.924Z,97.31
2023-02-07T22:41:41.096Z,97.46
2023-02-07T22:44:09.261Z,97.39
2023-02-07T22:46:39.279Z,97.55
2023-02-07T22:49:07.458Z,97.51
2023-02-07T22:51:37.543Z,97.74
2023-02-07T22:54:08.011Z,97.74
2023-02-07T22:56:38.150Z,97.49
2023-02-07T22:59:07.119Z,97.50
2023-02-07T23:01:38.685Z,97.62
2023-02-07T23:04:11.661Z,97.21
2023-02-07T23:06:40.045Z,98.01
2023-02-07T23:09:08.588Z,98.45
2023-02-07T23:11:37.424Z,98.16
2023-02-07T23:14:06.575Z,98.01
2023-02-07T23:16:35.871Z,97.89
2023-02-07T23:19:08.359Z,97.84
2023-02-07T23:21:38.065Z,97.63
2023-02-07T23:24:07.138Z,97.67
2023-02-07T23:26:35.670Z,97.70
2023-02-07T23:29:04.346Z,97.68
2023-02-07T23:31:32.792Z,97.63
2023-02-07T23:34:01.322Z,97.59
2023-02-07T23:36:29.585Z,97.62
2023-02-07T23:38:59.079Z,97.88
2023-02-07T23:41:27.708Z,97.94
2023-02-07T23:43:56.808Z,98.08
2023-02-07T23:46:25.039Z,97.93
2023-02-07T23:48:53.660Z,98.10
2023-02-07T23:51:22.340Z,97.92
2023-02-07T23:53:50.579Z,98.40
2023-02-07T23:56:22.521Z,98.99
2023-02-07T23:58:52.353Z,99.11
